createdAt,value
2018-07-07T00:01:53.726Z,8.95
2018-07-07T00:04:22.587Z,8.30
2018-07-07T00:06:51.815Z,8.60
2018-07-07T00:09:25.217Z,8.38
2018-07-07T00:11:54.547Z,7.97
2018-07-07T00:14:23.667Z,8.48
2018-07-07T00:16:52.463Z,8.40
2018-07-07T00:19:21.930Z,8.30
2018-07-07T00:21:51.556Z,8.10
2018-07-07T00:24:21.283Z,8.00
2018-07-07T00:26:50.122Z,7.30
2018-07-07T00:29:19.008Z,7.22
2018-07-07T00:31:47.568Z,7.10
2018-07-07T00:34:16.141Z,7.25
2018-07-07T00:36:44.449Z,6.40
2018-07-07T00:39:16.245Z,5.55
2018-07-07T00:41:44.512Z,4.50
2018-07-07T00:44:12.829Z,4.03
2018-07-07T00:46:41.356Z,4.50
2018-07-07T00:49:09.947Z,4.70
2018-07-07T00:51:38.543Z,5.00
2018-07-07T00:54:07.199Z,4.80
2018-07-07T00:56:35.648Z,5.10
2018-07-07T00:59:03.832Z,4.60
2018-07-07T01:01:31.922Z,4.80
2018-07-07T01:04:00.443Z,4.20
2018-07-07T01:06:29.500Z,4.10
2018-07-07T01:08:58.306Z,4.10
2018-07-07T01:11:27.082Z,3.67
2018-07-07T01:13:55.168Z,3.85
2018-07-07T01:16:23.328Z,3.77
2018-07-07T01:18:51.652Z,3.80
2018-07-07T01:21:20.268Z,3.70
2018-07-07T01:23:48.557Z,3.90
2018-07-07T01:26:16.963Z,4.10
2018-07-07T01:28:45.253Z,3.70
2018-07-07T01:31:13.555Z,3.90
2018-07-07T01:33:41.836Z,4.15
2018-07-07T01:36:09.828Z,3.83
2018-07-07T01:38:43.853Z,3.90
2018-07-07T01:41:12.265Z,3.50
2018-07-07T01:43:40.472Z,3.70
2018-07-07T01:46:09.062Z,3.20
2018-07-07T01:48:37.363Z,2.90
2018-07-07T01:51:05.687Z,2.80
2018-07-07T01:53:33.963Z,3.10
2018-07-07T01:56:05.828Z,3.17
2018-07-07T01:58:33.934Z,2.60
2018-07-07T02:01:02.824Z,3.40
2018-07-07T02:03:30.920Z,2.85
2018-07-07T02:05:59.435Z,3.30
2018-07-07T02:08:27.951Z,2.70
2018-07-07T02:10:56.330Z,2.80
2018-07-07T02:13:24.497Z,2.40
2018-07-07T02:15:56.193Z,3.00
2018-07-07T02:18:24.675Z,3.00
2018-07-07T02:20:53.094Z,3.20
2018-07-07T02:23:21.486Z,3.58
2018-07-07T02:26:01.648Z,3.62
2018-07-07T02:28:29.847Z,3.80
2018-07-07T02:30:57.821Z,3.70
2018-07-07T02:33:26.239Z,3.47
2018-07-07T02:35:54.648Z,3.80
2018-07-07T02:38:23.130Z,3.50
2018-07-07T02:40:51.560Z,3.30
2018-07-07T02:43:19.966Z,3.60
2018-07-07T02:45:48.348Z,3.27
2018-07-07T02:48:16.610Z,3.80
2018-07-07T02:50:44.913Z,3.40
2018-07-07T02:53:17.102Z,3.50
2018-07-07T02:55:45.246Z,3.72
2018-07-07T02:58:13.402Z,3.40
2018-07-07T03:00:41.485Z,3.27
2018-07-07T03:03:10.764Z,3.00
2018-07-07T03:05:39.215Z,3.10
2018-07-07T03:08:07.631Z,3.30
2018-07-07T03:10:39.296Z,3.50
2018-07-07T03:13:07.372Z,3.10
2018-07-07T03:15:35.872Z,2.98
2018-07-07T03:18:04.287Z,2.87
2018-07-07T03:20:32.366Z,3.08
2018-07-07T03:23:00.491Z,2.60
2018-07-07T03:25:29.256Z,2.75
2018-07-07T03:27:59.842Z,2.65
2018-07-07T03:30:28.324Z,2.30
2018-07-07T03:32:56.448Z,2.80
2018-07-07T03:35:27.884Z,2.40
2018-07-07T03:37:56.380Z,2.20
2018-07-07T03:40:24.821Z,2.20
2018-07-07T03:42:53.188Z,2.25
2018-07-07T03:45:21.604Z,2.20
2018-07-07T03:47:49.900Z,2.40
2018-07-07T03:50:18.412Z,2.20
2018-07-07T03:52:46.697Z,2.30
2018-07-07T03:55:15.100Z,1.80
2018-07-07T03:57:43.394Z,2.20
2018-07-07T04:00:11.992Z,2.10
2018-07-07T04:02:40.533Z,2.00
2018-07-07T04:05:19.743Z,1.75
2018-07-07T04:07:48.781Z,1.90
2018-07-07T04:10:17.003Z,1.90
2018-07-07T04:12:45.178Z,1.62
2018-07-07T04:15:13.442Z,2.00
2018-07-07T04:17:41.413Z,1.37
2018-07-07T04:20:10.039Z,1.37
2018-07-07T04:22:38.938Z,1.62
2018-07-07T04:25:13.691Z,1.40
2018-07-07T04:27:41.980Z,1.50
2018-07-07T04:30:10.103Z,1.32
2018-07-07T04:32:38.972Z,1.35
2018-07-07T04:35:07.462Z,1.40
2018-07-07T04:37:35.794Z,1.20
2018-07-07T04:40:04.622Z,1.30
2018-07-07T04:42:33.086Z,1.20
2018-07-07T04:45:01.177Z,1.42
2018-07-07T04:47:29.629Z,1.30
2018-07-07T04:49:57.874Z,1.30
2018-07-07T04:52:26.412Z,1.40
2018-07-07T04:54:54.558Z,1.50
2018-07-07T04:57:22.923Z,1.37
2018-07-07T04:59:51.271Z,1.32
2018-07-07T05:02:26.111Z,1.20
2018-07-07T05:04:53.991Z,1.20
2018-07-07T05:07:22.211Z,1.30
2018-07-07T05:09:51.161Z,1.30
2018-07-07T05:12:23.965Z,1.50
2018-07-07T05:14:53.145Z,1.50
2018-07-07T05:17:21.660Z,1.40
2018-07-07T05:19:49.840Z,1.55
2018-07-07T05:22:22.409Z,1.47
2018-07-07T05:24:50.958Z,1.50
2018-07-07T05:27:19.227Z,1.30
2018-07-07T05:29:47.308Z,1.30
2018-07-07T05:32:15.696Z,1.40
2018-07-07T05:34:44.329Z,1.40
2018-07-07T05:37:12.845Z,1.50
2018-07-07T05:39:41.463Z,1.30
2018-07-07T05:42:09.825Z,1.30
2018-07-07T05:44:38.329Z,1.40
2018-07-07T05:47:06.860Z,1.50
2018-07-07T05:49:37.993Z,1.65
2018-07-07T05:52:06.486Z,1.45
2018-07-07T05:54:34.991Z,1.60
2018-07-07T05:57:04.525Z,1.90
2018-07-07T05:59:32.617Z,1.27
2018-07-07T06:02:01.048Z,1.50
2018-07-07T06:04:29.411Z,1.62
2018-07-07T06:06:57.911Z,1.50
2018-07-07T06:09:26.017Z,1.70
2018-07-07T06:11:54.423Z,1.43
2018-07-07T06:14:22.756Z,1.82
2018-07-07T06:16:51.197Z,1.40
2018-07-07T06:19:19.609Z,1.50
2018-07-07T06:21:48.217Z,1.50
2018-07-07T06:24:20.291Z,1.60
2018-07-07T06:26:48.729Z,1.30
2018-07-07T06:29:16.850Z,1.70
2018-07-07T06:31:45.261Z,1.40
2018-07-07T06:34:13.697Z,1.30
2018-07-07T06:36:42.296Z,1.30
2018-07-07T06:39:11.470Z,1.10
2018-07-07T06:41:46.867Z,1.70
2018-07-07T06:44:16.597Z,1.40
2018-07-07T06:46:45.025Z,1.30
2018-07-07T06:49:13.066Z,1.80
2018-07-07T06:51:41.456Z,1.40
2018-07-07T06:54:09.666Z,1.20
2018-07-07T06:56:38.080Z,1.50
2018-07-07T06:59:06.366Z,1.20
2018-07-07T07:01:35.516Z,1.57
2018-07-07T07:04:03.990Z,1.30
2018-07-07T07:06:34.503Z,1.40
2018-07-07T07:09:03.315Z,1.30
2018-07-07T07:11:31.957Z,1.37
2018-07-07T07:14:00.453Z,1.50
2018-07-07T07:16:28.631Z,1.90
2018-07-07T07:18:56.828Z,1.70
2018-07-07T07:21:25.028Z,1.50
2018-07-07T07:23:53.023Z,1.40
2018-07-07T07:26:21.245Z,1.40
2018-07-07T07:28:49.938Z,1.40
2018-07-07T07:31:18.443Z,1.30
2018-07-07T07:33:47.328Z,1.47
2018-07-07T07:36:20.174Z,1.15
2018-07-07T07:38:49.152Z,1.70
2018-07-07T07:41:17.443Z,1.37
2018-07-07T07:43:45.551Z,1.60
2018-07-07T07:46:13.927Z,1.40
2018-07-07T07:48:42.197Z,1.60
2018-07-07T07:51:10.543Z,1.40
2018-07-07T07:53:38.932Z,1.30
2018-07-07T07:56:07.048Z,1.20
2018-07-07T07:58:35.237Z,1.20
2018-07-07T08:01:03.635Z,1.40
2018-07-07T08:03:31.930Z,1.40
2018-07-07T08:06:00.539Z,1.50
2018-07-07T08:08:28.906Z,1.35
2018-07-07T08:10:57.320Z,1.10
2018-07-07T08:13:25.738Z,1.30
2018-07-07T08:15:54.112Z,1.30
2018-07-07T08:18:22.539Z,1.30
2018-07-07T08:20:51.141Z,1.25
2018-07-07T08:23:19.514Z,1.40
2018-07-07T08:25:47.924Z,1.22
2018-07-07T08:28:15.824Z,1.00
2018-07-07T08:30:44.336Z,1.00
2018-07-07T08:33:12.732Z,1.30
2018-07-07T08:35:41.102Z,1.32
2018-07-07T08:38:14.481Z,1.40
2018-07-07T08:40:43.040Z,1.10
2018-07-07T08:43:14.983Z,1.32
2018-07-07T08:45:43.962Z,1.50
2018-07-07T08:48:12.323Z,1.15
2018-07-07T08:50:40.735Z,1.10
2018-07-07T08:53:09.310Z,1.20
2018-07-07T08:55:37.825Z,1.20
2018-07-07T08:58:06.032Z,1.10
2018-07-07T09:00:34.409Z,0.90
2018-07-07T09:03:06.328Z,1.50
2018-07-07T09:05:35.458Z,1.10
2018-07-07T09:08:04.230Z,1.45
2018-07-07T09:10:32.860Z,1.12
2018-07-07T09:13:04.756Z,1.00
2018-07-07T09:15:33.076Z,1.00
2018-07-07T09:18:01.508Z,1.30
2018-07-07T09:20:37.684Z,1.40
2018-07-07T09:23:06.544Z,0.90
2018-07-07T09:25:35.088Z,1.22
2018-07-07T09:28:03.593Z,1.00
2018-07-07T09:30:37.315Z,1.20
2018-07-07T09:33:05.709Z,0.95
2018-07-07T09:35:34.297Z,1.00
2018-07-07T09:38:02.726Z,0.90
2018-07-07T09:40:31.071Z,0.90
2018-07-07T09:42:59.333Z,0.90
2018-07-07T09:45:27.589Z,1.30
2018-07-07T09:47:55.697Z,0.90
2018-07-07T09:50:25.929Z,1.10
2018-07-07T09:52:54.243Z,0.90
2018-07-07T09:55:22.619Z,0.70
2018-07-07T09:57:51.346Z,0.80
2018-07-07T10:00:24.664Z,0.80
2018-07-07T10:02:53.269Z,0.90
2018-07-07T10:05:21.764Z,0.70
2018-07-07T10:07:50.450Z,0.80
2018-07-07T10:10:18.666Z,1.10
2018-07-07T10:12:47.233Z,0.60
2018-07-07T10:15:15.571Z,0.80
2018-07-07T10:17:44.044Z,0.60
2018-07-07T10:20:12.443Z,0.70
2018-07-07T10:22:42.512Z,0.70
2018-07-07T10:25:10.685Z,0.70
2018-07-07T10:27:38.774Z,0.62
2018-07-07T10:30:07.737Z,0.90
2018-07-07T10:32:36.209Z,0.90
2018-07-07T10:35:04.598Z,0.90
2018-07-07T10:37:32.875Z,0.80
2018-07-07T10:40:01.104Z,0.70
2018-07-07T10:42:29.705Z,0.90
2018-07-07T10:44:58.085Z,0.75
2018-07-07T10:47:26.461Z,0.60
2018-07-07T10:49:54.774Z,0.80
2018-07-07T10:52:23.273Z,0.90
2018-07-07T10:54:51.692Z,0.70
2018-07-07T10:57:19.670Z,0.80
2018-07-07T10:59:47.662Z,0.60
2018-07-07T11:02:15.848Z,0.90
2018-07-07T11:04:44.159Z,0.70
2018-07-07T11:07:12.204Z,0.80
2018-07-07T11:09:40.526Z,1.10
2018-07-07T11:12:09.110Z,0.60
2018-07-07T11:14:37.380Z,0.90
2018-07-07T11:17:06.211Z,0.70
2018-07-07T11:19:34.777Z,0.60
2018-07-07T11:22:03.160Z,0.65
2018-07-07T11:24:31.287Z,0.90
2018-07-07T11:26:59.464Z,0.70
2018-07-07T11:29:27.716Z,0.65
2018-07-07T11:31:56.774Z,0.80
2018-07-07T11:34:25.257Z,0.70
2018-07-07T11:36:53.693Z,0.60
2018-07-07T11:39:22.085Z,0.70
2018-07-07T11:41:50.589Z,0.60
2018-07-07T11:44:18.978Z,0.90
2018-07-07T11:46:47.452Z,0.80
2018-07-07T11:49:20.379Z,0.70
2018-07-07T11:51:48.755Z,0.70
2018-07-07T11:54:17.067Z,0.90
2018-07-07T11:56:45.156Z,0.72
2018-07-07T11:59:13.260Z,0.70
2018-07-07T12:01:41.608Z,0.80
2018-07-07T12:04:16.294Z,0.78
2018-07-07T12:06:45.422Z,0.80
2018-07-07T12:09:14.162Z,0.70
2018-07-07T12:11:42.556Z,1.00
2018-07-07T12:14:10.806Z,0.70
2018-07-07T12:16:38.876Z,0.90
2018-07-07T12:19:07.384Z,0.80
2018-07-07T12:21:35.901Z,0.80
2018-07-07T12:24:03.880Z,1.00
2018-07-07T12:26:32.314Z,0.90
2018-07-07T12:29:00.884Z,0.80
2018-07-07T12:31:29.417Z,0.80
2018-07-07T12:33:57.794Z,0.80
2018-07-07T12:36:25.903Z,1.00
2018-07-07T12:38:54.173Z,0.90
2018-07-07T12:41:22.495Z,0.93
2018-07-07T12:43:51.092Z,0.80
2018-07-07T12:46:19.617Z,0.90
2018-07-07T12:48:47.985Z,0.90
2018-07-07T12:51:16.081Z,1.10
2018-07-07T12:53:44.195Z,0.70
2018-07-07T12:56:12.795Z,0.90
2018-07-07T12:58:41.063Z,0.70
2018-07-07T13:01:09.600Z,0.80
2018-07-07T13:03:38.318Z,0.80
2018-07-07T13:06:06.792Z,0.60
2018-07-07T13:08:34.896Z,0.80
2018-07-07T13:11:03.283Z,0.80
2018-07-07T13:13:32.724Z,0.88
2018-07-07T13:16:01.165Z,1.00
2018-07-07T13:18:29.417Z,1.20
2018-07-07T13:20:57.818Z,0.85
2018-07-07T13:29:17.107Z,0.80
2018-07-07T13:31:45.919Z,0.70
2018-07-07T13:34:14.016Z,0.80
2018-07-07T13:36:42.528Z,0.97
2018-07-07T13:39:14.647Z,0.80
2018-07-07T13:41:43.100Z,0.90
2018-07-07T13:44:11.375Z,0.90
2018-07-07T13:46:39.599Z,0.67
2018-07-07T13:49:14.327Z,0.90
2018-07-07T13:51:42.414Z,0.80
2018-07-07T13:54:10.928Z,0.80
2018-07-07T13:56:39.422Z,1.02
2018-07-07T14:02:01.387Z,1.00
2018-07-07T14:04:29.667Z,0.90
2018-07-07T14:06:58.174Z,1.00
2018-07-07T14:09:33.172Z,0.82
2018-07-07T14:12:01.986Z,0.90
2018-07-07T14:14:30.241Z,1.05
2018-07-07T14:20:00.257Z,0.90
2018-07-07T14:22:28.481Z,1.47
2018-07-07T14:24:57.591Z,1.00
2018-07-07T14:27:25.973Z,1.05
2018-07-07T14:30:13.631Z,0.95
2018-07-07T14:32:42.009Z,0.72
2018-07-07T14:35:10.519Z,0.78
2018-07-07T14:37:38.907Z,0.88
2018-07-07T14:40:13.041Z,0.90
2018-07-07T14:42:48.200Z,0.80
2018-07-07T14:45:19.360Z,0.70
2018-07-07T14:47:48.688Z,0.70
2018-07-07T14:50:18.479Z,0.70
2018-07-07T14:52:47.201Z,0.80
2018-07-07T14:55:15.906Z,0.80
2018-07-07T14:57:49.549Z,1.10
2018-07-07T15:00:22.037Z,0.63
2018-07-07T15:02:51.504Z,0.80
2018-07-07T15:05:26.787Z,1.10
2018-07-07T15:07:55.072Z,1.00
2018-07-07T15:10:23.580Z,0.90
2018-07-07T15:12:51.794Z,1.20
2018-07-07T15:15:19.789Z,0.80
2018-07-07T15:17:49.347Z,0.90
2018-07-07T15:20:17.743Z,1.00
2018-07-07T15:22:46.542Z,1.00
2018-07-07T15:25:18.911Z,1.22
2018-07-07T15:27:47.283Z,0.80
2018-07-07T15:30:15.712Z,0.90
2018-07-07T15:32:44.143Z,0.72
2018-07-07T15:35:13.446Z,1.00
2018-07-07T15:37:41.925Z,0.85
2018-07-07T15:40:09.909Z,0.90
2018-07-07T15:42:38.405Z,0.90
2018-07-07T15:45:12.668Z,1.10
2018-07-07T15:47:41.240Z,1.00
2018-07-07T15:50:09.863Z,0.90
2018-07-07T15:52:39.412Z,0.97
2018-07-07T15:55:08.094Z,1.00
2018-07-07T15:57:36.365Z,1.10
2018-07-07T16:00:05.384Z,1.00
2018-07-07T16:02:33.762Z,1.30
2018-07-07T16:05:02.204Z,1.00
2018-07-07T16:07:30.596Z,1.20
2018-07-07T16:10:01.161Z,1.60
2018-07-07T16:12:29.654Z,1.10
2018-07-07T16:14:58.257Z,1.10
2018-07-07T16:17:26.672Z,1.02
2018-07-07T16:19:56.269Z,1.10
2018-07-07T16:22:25.348Z,1.10
2018-07-07T16:24:55.215Z,1.20
2018-07-07T16:27:23.449Z,1.30
2018-07-07T16:29:53.873Z,1.40
2018-07-07T16:32:22.496Z,1.50
2018-07-07T16:34:50.995Z,1.23
2018-07-07T16:37:19.404Z,1.10
2018-07-07T16:39:51.155Z,1.40
2018-07-07T16:42:19.732Z,1.30
2018-07-07T16:44:48.331Z,1.40
2018-07-07T16:47:17.056Z,1.40
2018-07-07T16:49:45.251Z,1.50
2018-07-07T16:52:13.730Z,1.27
2018-07-07T16:54:42.708Z,1.30
2018-07-07T16:57:13.457Z,1.60
2018-07-07T16:59:42.185Z,1.30
2018-07-07T17:02:10.808Z,1.30
2018-07-07T17:04:39.425Z,1.60
2018-07-07T17:07:07.742Z,1.70
2018-07-07T17:09:38.088Z,1.50
2018-07-07T17:12:06.679Z,1.75
2018-07-07T17:14:35.105Z,1.80
2018-07-07T17:17:03.690Z,1.85
2018-07-07T17:19:31.989Z,1.80
2018-07-07T17:22:02.443Z,1.90
2018-07-07T17:24:31.469Z,1.70
2018-07-07T17:27:00.052Z,1.60
2018-07-07T17:29:28.757Z,2.00
2018-07-07T17:31:58.144Z,1.80
2018-07-07T17:34:27.295Z,2.00
2018-07-07T17:36:55.789Z,1.90
2018-07-07T17:39:24.250Z,2.10
2018-07-07T17:41:52.814Z,1.80
2018-07-07T17:44:21.930Z,2.20
2018-07-07T17:46:50.422Z,2.02
2018-07-07T17:49:18.932Z,2.33
2018-07-07T17:51:47.386Z,2.30
2018-07-07T17:54:16.822Z,2.58
2018-07-07T17:58:05.119Z,2.30
2018-07-07T18:00:33.420Z,2.37
2018-07-07T18:03:02.382Z,2.30
2018-07-07T18:05:30.710Z,2.20
2018-07-07T18:07:59.334Z,2.37
2018-07-07T18:10:27.627Z,2.55
2018-07-07T18:12:55.720Z,2.27
2018-07-07T18:15:24.367Z,2.20
2018-07-07T18:17:53.034Z,2.10
2018-07-07T18:20:21.319Z,2.40
2018-07-07T18:22:49.713Z,2.17
2018-07-07T18:25:18.141Z,2.47
2018-07-07T18:27:46.633Z,2.25
2018-07-07T18:30:14.924Z,2.37
2018-07-07T18:32:43.227Z,2.50
2018-07-07T18:35:11.497Z,2.40
2018-07-07T18:37:44.059Z,2.50
2018-07-07T18:40:12.181Z,2.40
2018-07-07T18:42:40.506Z,2.30
2018-07-07T18:45:08.990Z,2.50
2018-07-07T18:47:38.524Z,2.40
2018-07-07T18:50:06.787Z,2.98
2018-07-07T18:52:35.220Z,2.45
2018-07-07T18:55:03.706Z,2.55
2018-07-07T18:57:32.055Z,2.40
2018-07-07T19:00:00.308Z,3.00
2018-07-07T19:02:28.722Z,2.80
2018-07-07T19:04:57.209Z,2.70
2018-07-07T19:07:26.244Z,2.92
2018-07-07T19:10:00.272Z,2.83
2018-07-07T19:12:29.467Z,2.37
2018-07-07T19:15:03.809Z,3.00
2018-07-07T19:17:31.692Z,3.00
2018-07-07T19:20:02.229Z,2.87
2018-07-07T19:22:36.274Z,3.00
2018-07-07T19:25:10.152Z,3.62
2018-07-07T19:27:38.571Z,2.70
2018-07-07T19:32:17.636Z,2.90
2018-07-07T19:34:51.218Z,3.08
2018-07-07T19:37:20.832Z,3.00
2018-07-07T19:39:49.324Z,2.90
2018-07-07T19:42:17.747Z,3.20
2018-07-07T19:44:46.731Z,3.00
2018-07-07T19:47:14.916Z,3.20
2018-07-07T19:49:44.291Z,3.62
2018-07-07T19:52:12.667Z,3.02
2018-07-07T19:54:40.971Z,3.17
2018-07-07T19:57:16.335Z,3.30
2018-07-07T19:59:44.656Z,3.17
2018-07-07T20:02:13.135Z,3.12
2018-07-07T20:04:41.397Z,3.70
2018-07-07T20:07:09.883Z,3.30
2018-07-07T20:09:38.397Z,2.85
2018-07-07T20:12:06.647Z,3.20
2018-07-07T20:14:35.021Z,3.00
2018-07-07T20:17:13.002Z,3.10
2018-07-07T20:20:59.916Z,3.20
2018-07-07T20:23:29.140Z,3.27
2018-07-07T20:26:00.524Z,3.40
2018-07-07T20:28:34.401Z,3.40
2018-07-07T20:31:02.785Z,3.20
2018-07-07T20:33:31.195Z,3.10
2018-07-07T20:36:00.604Z,3.10
2018-07-07T20:38:29.120Z,3.10
2018-07-07T20:40:57.401Z,3.27
2018-07-07T20:43:26.346Z,3.20
2018-07-07T20:45:54.817Z,3.50
2018-07-07T20:48:23.175Z,3.50
2018-07-07T20:50:51.398Z,3.30
2018-07-07T20:53:19.797Z,3.85
2018-07-07T20:55:48.315Z,3.30
2018-07-07T20:58:16.613Z,3.80
2018-07-07T21:00:45.421Z,3.62
2018-07-07T21:03:21.057Z,3.90
2018-07-07T21:05:49.483Z,3.90
2018-07-07T21:08:18.033Z,3.98
2018-07-07T21:10:46.486Z,3.50
2018-07-07T21:13:16.931Z,4.22
2018-07-07T21:15:45.927Z,3.90
2018-07-07T21:18:14.073Z,3.70
2018-07-07T21:20:42.206Z,3.80
2018-07-07T21:23:10.399Z,3.90
2018-07-07T21:25:38.807Z,4.05
2018-07-07T21:28:07.412Z,3.70
2018-07-07T21:30:35.916Z,3.80
2018-07-07T21:33:04.511Z,4.55
2018-07-07T21:35:33.207Z,4.30
2018-07-07T21:38:01.860Z,4.42
2018-07-07T21:40:30.623Z,4.75
2018-07-07T21:42:59.238Z,4.63
2018-07-07T21:45:28.765Z,4.90
2018-07-07T21:47:57.407Z,4.90
2018-07-07T21:50:25.688Z,4.83
2018-07-07T21:52:53.985Z,4.92
2018-07-07T21:55:22.481Z,4.60
2018-07-07T21:57:55.853Z,5.10
2018-07-07T22:00:29.903Z,5.00
2018-07-07T22:03:03.513Z,4.90
2018-07-07T22:05:32.243Z,5.30
2018-07-07T22:08:05.180Z,5.50
2018-07-07T22:10:33.497Z,5.20
2018-07-07T22:13:01.721Z,5.37
2018-07-07T22:15:29.714Z,5.07
2018-07-07T22:17:58.306Z,4.78
2018-07-07T22:20:34.874Z,5.40
2018-07-07T22:23:03.636Z,5.40
2018-07-07T22:25:31.996Z,5.42
2018-07-07T22:28:00.628Z,4.95
2018-07-07T22:30:29.091Z,4.90
2018-07-07T22:33:03.022Z,5.03
2018-07-07T22:35:36.842Z,5.65
2018-07-07T22:38:09.464Z,5.20
2018-07-07T22:40:37.741Z,5.00
2018-07-07T22:43:06.261Z,5.00
2018-07-07T22:45:34.652Z,5.33
2018-07-07T22:48:03.042Z,5.15
2018-07-07T22:50:31.035Z,5.20
2018-07-07T22:52:59.225Z,5.10
2018-07-07T22:55:27.644Z,5.40
2018-07-07T22:57:56.007Z,5.55
2018-07-07T23:00:34.462Z,4.75
2018-07-07T23:03:02.766Z,5.50
2018-07-07T23:05:31.184Z,4.80
2018-07-07T23:07:59.661Z,5.00
2018-07-07T23:10:35.130Z,4.87
2018-07-07T23:13:03.416Z,4.37
2018-07-07T23:15:31.584Z,4.60
2018-07-07T23:18:00.323Z,4.60
2018-07-07T23:20:34.444Z,4.83
2018-07-07T23:23:02.614Z,4.90
2018-07-07T23:25:31.579Z,4.78
2018-07-07T23:27:59.838Z,5.08
2018-07-07T23:30:28.047Z,4.70
2018-07-07T23:32:56.436Z,4.67
2018-07-07T23:35:24.535Z,4.33
2018-07-07T23:37:52.737Z,4.28
2018-07-07T23:40:21.103Z,4.67
2018-07-07T23:42:49.217Z,4.67
2018-07-07T23:45:17.415Z,4.10
2018-07-07T23:47:52.769Z,4.22
2018-07-07T23:50:20.833Z,4.50
2018-07-07T23:52:49.358Z,4.53
2018-07-07T23:55:17.651Z,4.50
2018-07-07T23:57:45.740Z,4.30
